Time;durP1;ratioP1;P1;durP2;ratioP2;P2;SDS_P1;SDS_P2;PMS_P1;PMS_P2;Temp;Humidity;BMP_temperature;BMP_pressure;BME280_temperature;BME280_humidity;BME280_pressure;Samples;Min_cycle;Max_cycle;Signal;HPM_P1;HPM_P2
2023/12/13 00:00:21;;;;;;;52.67;29.77;;;;;;;3.61;100.00;92824.06;4992908;28;20096;-78
2023/12/13 00:02:48;;;;;;;50.13;27.70;;;;;;;3.42;100.00;92789.88;4989027;28;20153;-78
2023/12/13 00:05:15;;;;;;;49.80;30.48;;;;;;;3.60;100.00;92810.59;4989560;28;20050;-77
2023/12/13 00:07:42;;;;;;;46.10;29.77;;;;;;;3.57;100.00;92808.41;4988762;28;20496;-78
2023/12/13 00:10:10;;;;;;;47.80;29.88;;;;;;;3.56;100.00;92798.44;4988764;28;20057;-77
2023/12/13 00:12:37;;;;;;;46.67;28.65;;;;;;;3.47;100.00;92802.81;4988479;28;20050;-78
2023/12/13 00:15:04;;;;;;;49.85;28.63;;;;;;;3.55;100.00;92812.09;4992564;28;20130;-78
2023/12/13 00:17:32;;;;;;;48.60;28.30;;;;;;;3.48;100.00;92812.78;5005709;28;20046;-78
2023/12/13 00:19:59;;;;;;;38.25;25.27;;;;;;;3.51;100.00;92811.66;5000338;28;20062;-78
2023/12/13 00:22:26;;;;;;;43.60;25.88;;;;;;;3.36;100.00;92804.03;4995639;28;20062;-78
2023/12/13 00:24:53;;;;;;;41.55;25.75;;;;;;;3.23;100.00;92812.25;4988877;28;20050;-78
2023/12/13 00:27:20;;;;;;;53.85;28.88;;;;;;;2.97;100.00;92803.31;4989065;28;20389;-78
2023/12/13 00:29:47;;;;;;;42.10;25.80;;;;;;;3.06;100.00;92781.19;4983440;28;20046;-78
2023/12/13 00:32:14;;;;;;;42.55;24.98;;;;;;;3.39;100.00;92792.75;4993024;28;20054;-78
2023/12/13 00:34:42;;;;;;;38.35;22.85;;;;;;;3.51;100.00;92777.88;4988700;28;20054;-78
2023/12/13 00:37:09;;;;;;;31.60;18.65;;;;;;;3.58;100.00;92764.28;4988016;28;20043;-78
2023/12/13 00:42:31;;;;;;;19.35;12.00;;;;;;;4.11;100.00;92786.16;4988178;28;20109;-78
2023/12/13 00:44:58;;;;;;;23.38;13.70;;;;;;;4.24;100.00;92788.03;4999430;28;20050;-78
2023/12/13 00:47:28;;;;;;;18.60;11.55;;;;;;;4.36;100.00;92785.78;4990242;28;20038;-78
2023/12/13 00:49:56;;;;;;;20.23;12.20;;;;;;;4.52;100.00;92777.13;4997554;28;20046;-78
2023/12/13 00:52:23;;;;;;;20.08;12.00;;;;;;;4.66;100.00;92778.03;4996667;28;20042;-78
2023/12/13 00:54:50;;;;;;;18.98;10.18;;;;;;;4.67;100.00;92784.69;4997422;28;20145;-78
2023/12/13 00:57:17;;;;;;;18.33;11.35;;;;;;;4.70;100.00;92772.56;5003085;28;20042;-78
2023/12/13 00:59:44;;;;;;;17.13;10.18;;;;;;;4.79;100.00;92774.81;5000942;28;20050;-78
2023/12/13 01:02:12;;;;;;;21.10;11.57;;;;;;;4.89;100.00;92769.38;5003150;28;20048;-78
2023/12/13 01:04:52;;;;;;;19.85;12.23;;;;;;;4.80;100.00;92781.47;5001234;28;20046;-78
2023/12/13 01:07:21;;;;;;;23.33;13.45;;;;;;;4.70;100.00;92763.19;5001986;28;20132;-78
2023/12/13 01:09:47;;;;;;;19.95;12.05;;;;;;;4.85;100.00;92757.22;5001028;28;20160;-77
2023/12/13 01:12:15;;;;;;;21.13;12.20;;;;;;;4.95;100.00;92750.81;5003363;28;20161;-77
2023/12/13 01:14:42;;;;;;;19.65;14.35;;;;;;;4.95;100.00;92743.19;4997211;28;20043;-77
2023/12/13 01:17:10;;;;;;;18.60;11.27;;;;;;;5.05;100.00;92739.53;4989473;28;20054;-77
2023/12/13 01:19:37;;;;;;;12.23;7.95;;;;;;;5.02;100.00;92742.44;4987662;28;20162;-77
2023/12/13 01:22:04;;;;;;;11.73;7.00;;;;;;;5.14;100.00;92730.75;4987702;28;20056;-77
2023/12/13 01:24:33;;;;;;;10.93;6.43;;;;;;;5.19;100.00;92725.13;4988006;28;20165;-77
2023/12/13 01:27:00;;;;;;;9.15;5.30;;;;;;;5.28;100.00;92718.88;4987791;28;20060;-78
2023/12/13 01:29:27;;;;;;;8.88;4.60;;;;;;;5.37;100.00;92719.50;4987654;28;20129;-78
2023/12/13 01:31:54;;;;;;;8.23;4.63;;;;;;;5.42;100.00;92721.50;4990246;28;20519;-78
2023/12/13 01:34:21;;;;;;;7.85;4.18;;;;;;;5.48;100.00;92723.28;4987970;28;20056;-78
2023/12/13 01:36:48;;;;;;;9.77;4.57;;;;;;;5.58;100.00;92736.44;4987306;28;20659;-78
2023/12/13 01:39:16;;;;;;;10.35;5.95;;;;;;;5.61;100.00;92730.97;4990152;28;20064;-78
2023/12/13 01:41:44;;;;;;;9.07;5.55;;;;;;;5.66;100.00;92730.41;4987642;28;20047;-78
2023/12/13 01:44:11;;;;;;;13.98;7.47;;;;;;;5.40;100.00;92695.41;4992988;28;20050;-78
2023/12/13 01:46:39;;;;;;;17.60;10.13;;;;;;;5.64;100.00;92732.34;4988747;28;20626;-78
2023/12/13 01:49:08;;;;;;;11.60;6.22;;;;;;;5.89;100.00;92729.28;4995106;28;20050;-78
2023/12/13 01:51:37;;;;;;;12.43;7.78;;;;;;;5.91;100.00;92717.13;4991243;28;20046;-77
2023/12/13 01:54:05;;;;;;;12.38;6.50;;;;;;;6.01;100.00;92707.34;4991271;28;20495;-78
2023/12/13 01:56:32;;;;;;;9.52;6.05;;;;;;;6.06;100.00;92708.56;4991835;28;20053;-78
2023/12/13 01:59:01;;;;;;;7.25;4.00;;;;;;;6.12;100.00;92706.00;4993281;28;20054;-78
2023/12/13 02:01:29;;;;;;;4.40;2.97;;;;;;;6.19;100.00;92711.13;5006314;28;20397;-78
2023/12/13 02:03:56;;;;;;;5.72;3.30;;;;;;;6.30;100.00;92701.34;4991618;28;20061;-78
2023/12/13 02:06:23;;;;;;;7.00;3.10;;;;;;;6.38;100.00;92703.66;4993693;28;20055;-78
2023/12/13 02:08:53;;;;;;;4.03;2.47;;;;;;;6.45;100.00;92690.94;5004115;28;20058;-77
2023/12/13 02:11:23;;;;;;;5.10;2.95;;;;;;;6.52;100.00;92681.50;4990867;28;20056;-78
2023/12/13 02:13:50;;;;;;;6.20;3.10;;;;;;;6.60;100.00;92673.66;4992071;28;20054;-78
2023/12/13 02:16:18;;;;;;;4.07;2.42;;;;;;;6.66;100.00;92670.31;5000600;28;20100;-78
2023/12/13 02:18:45;;;;;;;6.40;2.60;;;;;;;6.56;100.00;92646.94;5008696;28;20479;-78
2023/12/13 02:21:12;;;;;;;3.30;2.00;;;;;;;6.76;100.00;92675.00;5007005;28;20046;-78
2023/12/13 02:23:41;;;;;;;5.85;2.45;;;;;;;6.86;100.00;92682.25;4991645;28;20054;-78
2023/12/13 02:26:08;;;;;;;5.07;2.70;;;;;;;6.88;100.00;92685.38;4998971;28;20057;-79
2023/12/13 02:28:36;;;;;;;14.63;7.93;;;;;;;6.89;100.00;92681.84;4990790;28;20162;-79
2023/12/13 02:31:03;;;;;;;14.20;8.40;;;;;;;6.92;100.00;92671.25;4990851;28;20050;-79
2023/12/13 02:33:31;;;;;;;39.45;20.27;;;;;;;6.88;100.00;92653.94;4991941;28;20050;-79
2023/12/13 02:36:01;;;;;;;44.25;24.02;;;;;;;6.98;100.00;92659.44;4990551;28;20046;-79
2023/12/13 02:38:27;;;;;;;31.35;17.52;;;;;;;6.98;100.00;92639.00;4993355;28;20460;-79
2023/12/13 02:40:56;;;;;;;16.50;9.82;;;;;;;7.02;100.00;92647.84;4992173;28;20050;-80
2023/12/13 02:43:23;;;;;;;13.32;7.00;;;;;;;6.97;100.00;92645.09;4994205;28;20058;-78
2023/12/13 02:45:51;;;;;;;10.88;6.63;;;;;;;6.91;100.00;92638.25;5004999;28;20168;-79
2023/12/13 02:48:18;;;;;;;10.73;6.85;;;;;;;7.00;100.00;92659.25;4994681;28;20056;-79
2023/12/13 02:50:45;;;;;;;9.45;5.00;;;;;;;7.05;100.00;92657.63;4990451;28;20060;-78
2023/12/13 02:53:12;;;;;;;9.57;4.68;;;;;;;7.03;100.00;92658.84;4993796;28;20189;-78
2023/12/13 02:55:39;;;;;;;6.80;5.03;;;;;;;6.98;100.00;92653.56;4993460;28;20068;-78
2023/12/13 02:58:08;;;;;;;5.38;3.33;;;;;;;6.98;100.00;92661.97;4989588;28;20144;-78
2023/12/13 03:00:37;;;;;;;6.28;3.60;;;;;;;6.85;100.00;92639.06;4998055;28;20049;-78
2023/12/13 03:03:04;;;;;;;7.32;3.70;;;;;;;6.90;100.00;92647.66;5007407;28;20056;-79
2023/12/13 03:05:31;;;;;;;8.23;3.25;;;;;;;6.80;100.00;92647.28;5007241;28;20180;-78
2023/12/13 03:07:58;;;;;;;7.03;3.38;;;;;;;6.82;100.00;92646.09;4994224;28;20611;-78
2023/12/13 03:10:25;;;;;;;7.50;3.58;;;;;;;6.85;100.00;92644.16;4994207;28;20052;-77
2023/12/13 03:12:52;;;;;;;9.23;3.95;;;;;;;6.88;100.00;92664.97;4989494;28;20081;-77
2023/12/13 03:15:20;;;;;;;8.98;4.22;;;;;;;6.75;100.00;92645.34;4989668;28;20046;-78
2023/12/13 03:17:47;;;;;;;6.13;3.17;;;;;;;6.90;100.00;92672.44;4989754;28;20439;-79
2023/12/13 03:20:14;;;;;;;7.72;3.85;;;;;;;6.80;100.00;92677.94;4993781;28;20058;-79
2023/12/13 03:22:43;;;;;;;5.95;2.92;;;;;;;6.86;100.00;92681.47;4989380;28;20070;-79
2023/12/13 03:25:15;;;;;;;6.03;2.92;;;;;;;6.91;100.00;92679.09;5001905;28;20104;-79
2023/12/13 03:27:43;;;;;;;5.55;2.83;;;;;;;6.97;100.00;92674.94;4998278;28;20054;-78
2023/12/13 03:30:10;;;;;;;6.45;3.08;;;;;;;6.96;100.00;92671.63;4991705;28;20715;-79
2023/12/13 03:32:39;;;;;;;7.22;3.28;;;;;;;6.93;100.00;92660.03;4993208;28;20054;-81
2023/12/13 03:35:10;;;;;;;4.95;3.10;;;;;;;6.91;100.00;92661.22;4990537;28;20089;-78
2023/12/13 03:37:37;;;;;;;7.78;3.20;;;;;;;7.00;100.00;92677.91;4990150;28;20054;-78
2023/12/13 03:40:05;;;;;;;6.97;2.90;;;;;;;6.99;100.00;92699.28;4994793;28;20081;-78
2023/12/13 03:42:34;;;;;;;4.60;2.92;;;;;;;6.96;100.00;92702.25;5002085;28;20523;-78
2023/12/13 03:45:01;;;;;;;5.00;2.58;;;;;;;6.94;100.00;92706.78;4999726;28;20061;-77
2023/12/13 03:47:28;;;;;;;4.35;2.70;;;;;;;6.88;100.00;92698.16;5002758;28;20157;-79
2023/12/13 03:49:57;;;;;;;5.38;2.20;;;;;;;6.93;100.00;92695.00;4997108;28;20249;-80
2023/12/13 03:52:27;;;;;;;4.50;2.22;;;;;;;6.94;100.00;92679.47;4998026;28;20053;-80
2023/12/13 03:54:54;;;;;;;7.18;3.50;;;;;;;7.05;100.00;92687.50;4998978;28;20080;-80
2023/12/13 03:57:35;;;;;;;5.63;2.88;;;;;;;7.02;100.00;92693.81;5003633;28;20054;-79
2023/12/13 04:00:02;;;;;;;4.18;2.13;;;;;;;7.02;100.00;92693.81;5001024;28;20072;-79
2023/12/13 04:02:28;;;;;;;7.00;2.53;;;;;;;7.06;100.00;92691.63;4998130;28;20096;-78
2023/12/13 04:04:57;;;;;;;3.70;2.05;;;;;;;7.09;100.00;92686.13;5002504;28;20170;-79
2023/12/13 04:07:24;;;;;;;3.50;2.20;;;;;;;7.15;100.00;92681.97;5001697;28;20056;-79
2023/12/13 04:09:51;;;;;;;5.18;2.60;;;;;;;7.16;100.00;92674.13;5000419;28;20049;-80
2023/12/13 04:12:18;;;;;;;5.05;3.08;;;;;;;7.05;100.00;92654.31;5000190;28;20121;-79
2023/12/13 04:14:45;;;;;;;6.43;3.20;;;;;;;7.08;100.00;92662.34;5000558;28;20048;-80
2023/12/13 04:17:11;;;;;;;4.13;2.30;;;;;;;7.18;100.00;92664.47;4999653;28;20053;-79
2023/12/13 04:19:39;;;;;;;8.65;2.70;;;;;;;7.20;100.00;92666.84;4999275;28;20136;-78
2023/12/13 04:22:07;;;;;;;5.22;2.45;;;;;;;7.19;100.00;92660.16;5000197;28;20519;-79
2023/12/13 04:24:34;;;;;;;6.70;2.47;;;;;;;7.24;100.00;92652.69;4997486;28;20042;-79
2023/12/13 04:27:02;;;;;;;4.93;2.78;;;;;;;7.21;100.00;92651.31;4998709;28;20129;-79
2023/12/13 04:29:28;;;;;;;5.13;2.90;;;;;;;7.00;100.00;92626.03;4995178;28;20049;-79
2023/12/13 04:31:55;;;;;;;8.40;3.22;;;;;;;7.15;100.00;92644.47;4996553;28;20042;-79
2023/12/13 04:34:22;;;;;;;6.35;2.72;;;;;;;7.15;100.00;92641.09;4999427;28;20502;-80
2023/12/13 04:36:49;;;;;;;5.63;2.30;;;;;;;7.19;100.00;92626.97;4999054;28;20144;-80
2023/12/13 04:39:18;;;;;;;6.50;3.08;;;;;;;7.15;100.00;92621.47;4999794;28;20045;-80
2023/12/13 04:41:45;;;;;;;7.72;2.70;;;;;;;7.03;100.00;92618.75;4997314;28;20521;-79
2023/12/13 04:44:12;;;;;;;6.53;2.83;;;;;;;7.02;100.00;92604.44;5001029;28;20053;-79
2023/12/13 04:46:39;;;;;;;6.47;2.70;;;;;;;7.08;100.00;92611.28;5001636;28;20125;-79
2023/12/13 04:49:07;;;;;;;9.20;3.35;;;;;;;7.09;100.00;92597.50;5000817;28;20128;-80
2023/12/13 04:51:37;;;;;;;7.53;2.88;;;;;;;6.85;100.00;92562.47;4998425;28;20693;-80
2023/12/13 04:54:05;;;;;;;8.73;2.58;;;;;;;7.12;100.00;92590.44;4997034;28;20042;-80
2023/12/13 04:56:33;;;;;;;6.53;2.75;;;;;;;7.17;100.00;92593.94;4999877;28;20048;-80
2023/12/13 04:59:00;;;;;;;3.63;1.98;;;;;;;7.07;100.00;92575.72;4995366;28;20944;-80
2023/12/13 05:01:27;;;;;;;4.32;1.95;;;;;;;7.14;100.00;92575.69;4997674;28;20082;-81
2023/12/13 05:03:54;;;;;;;5.93;2.80;;;;;;;7.13;100.00;92582.56;4994335;28;20054;-80
2023/12/13 05:06:21;;;;;;;3.85;2.53;;;;;;;7.12;100.00;92575.13;4997122;28;20557;-80
2023/12/13 05:08:51;;;;;;;3.45;2.35;;;;;;;7.08;100.00;92567.84;4996344;28;20051;-80
2023/12/13 05:11:18;;;;;;;6.53;2.70;;;;;;;7.27;100.00;92590.94;4998416;28;20081;-79
2023/12/13 05:13:50;;;;;;;5.65;2.50;;;;;;;7.28;100.00;92584.06;4997416;28;20772;-79
2023/12/13 05:16:17;;;;;;;6.20;2.97;;;;;;;7.26;100.00;92583.50;4995141;28;20389;-79
2023/12/13 05:18:43;;;;;;;5.78;2.97;;;;;;;7.40;100.00;92597.00;4997511;28;20049;-79
2023/12/13 05:21:10;;;;;;;6.50;3.05;;;;;;;7.40;100.00;92589.34;4998604;28;20420;-80
2023/12/13 05:23:37;;;;;;;3.50;2.35;;;;;;;7.32;100.00;92568.13;5002954;28;20054;-80
2023/12/13 05:26:05;;;;;;;4.07;2.00;;;;;;;7.32;100.00;92540.03;5001952;28;20077;-80
2023/12/13 05:28:32;;;;;;;3.35;2.08;;;;;;;7.24;100.00;92535.16;5002034;28;20049;-81
2023/12/13 05:31:00;;;;;;;4.97;2.33;;;;;;;7.34;100.00;92545.72;5000052;28;20824;-82
2023/12/13 05:33:27;;;;;;;4.57;1.73;;;;;;;7.31;100.00;92561.44;4998820;28;20046;-81
2023/12/13 05:35:54;;;;;;;3.88;1.55;;;;;;;7.28;100.00;92569.53;4997023;28;20052;-81
2023/12/13 05:38:21;;;;;;;3.20;1.95;;;;;;;7.34;100.00;92590.91;5000520;28;20060;-81
2023/12/13 05:40:50;;;;;;;5.18;2.40;;;;;;;7.38;100.00;92606.63;5000069;28;20050;-81
2023/12/13 05:43:17;;;;;;;4.93;2.40;;;;;;;7.41;100.00;92601.13;4997564;28;20522;-80
2023/12/13 05:45:44;;;;;;;4.65;2.38;;;;;;;7.41;100.00;92604.44;4996712;28;20046;-81
2023/12/13 05:48:13;;;;;;;6.97;2.33;;;;;;;7.42;100.00;92606.03;4995871;28;20754;-81
2023/12/13 05:50:40;;;;;;;7.30;2.80;;;;;;;7.48;100.00;92606.97;4994420;28;20050;-81
2023/12/13 05:53:06;;;;;;;5.47;2.60;;;;;;;7.48;100.00;92610.31;4997094;28;20082;-81
2023/12/13 05:55:33;;;;;;;4.85;2.00;;;;;;;7.58;100.00;92622.63;4995823;28;20048;-80
2023/12/13 05:58:00;;;;;;;4.22;2.50;;;;;;;7.59;100.00;92613.97;4991845;28;20060;-81
2023/12/13 06:00:27;;;;;;;4.88;2.50;;;;;;;7.52;100.00;92586.88;4992214;28;20047;-80
2023/12/13 06:02:54;;;;;;;6.00;2.58;;;;;;;7.63;100.00;92586.22;4992135;28;20425;-81
2023/12/13 06:05:25;;;;;;;8.07;3.10;;;;;;;7.60;100.00;92569.53;4997919;28;20567;-80
2023/12/13 06:07:52;;;;;;;6.95;3.10;;;;;;;7.67;100.00;92573.81;4992029;28;20801;-81
2023/12/13 06:10:19;;;;;;;6.43;3.10;;;;;;;7.56;100.00;92573.50;4990889;28;20572;-81
2023/12/13 06:12:46;;;;;;;7.00;3.38;;;;;;;7.63;100.00;92578.56;4993976;28;20060;-80
2023/12/13 06:15:13;;;;;;;4.38;2.58;;;;;;;7.46;100.00;92588.50;4999225;28;20046;-81
2023/12/13 06:17:40;;;;;;;5.85;2.83;;;;;;;7.52;100.00;92602.22;4991273;28;20046;-81
2023/12/13 06:20:09;;;;;;;8.30;3.53;;;;;;;7.51;100.00;92598.91;4994275;28;20733;-80
2023/12/13 06:22:37;;;;;;;5.13;3.25;;;;;;;7.55;100.00;92589.81;4997444;28;20054;-80
2023/12/13 06:25:05;;;;;;;8.10;3.08;;;;;;;7.31;100.00;92542.81;5000096;28;20133;-81
2023/12/13 06:27:32;;;;;;;8.45;3.65;;;;;;;7.48;100.00;92561.75;4997459;28;20871;-80
2023/12/13 06:29:58;;;;;;;6.20;3.40;;;;;;;7.56;100.00;92565.03;5000732;28;20057;-81
2023/12/13 06:32:25;;;;;;;7.93;2.90;;;;;;;7.62;100.00;92570.13;5001869;28;20057;-81
2023/12/13 06:34:54;;;;;;;5.32;2.92;;;;;;;7.61;100.00;92578.78;4998019;28;20417;-81
2023/12/13 06:37:21;;;;;;;3.58;2.50;;;;;;;7.72;100.00;92590.09;4995139;28;20052;-80
2023/12/13 06:39:52;;;;;;;9.20;2.38;;;;;;;7.74;100.00;92577.88;4992174;28;20046;-81
2023/12/13 06:42:19;;;;;;;5.25;2.78;;;;;;;7.72;100.00;92579.88;4993008;28;20054;-80
2023/12/13 06:44:46;;;;;;;5.60;2.75;;;;;;;7.73;100.00;92571.22;4993699;28;20526;-81
2023/12/13 06:47:13;;;;;;;5.00;3.22;;;;;;;7.67;100.00;92563.59;4990854;28;20137;-81
2023/12/13 06:49:40;;;;;;;7.32;3.08;;;;;;;7.68;100.00;92550.59;4991923;28;20050;-81
2023/12/13 06:52:07;;;;;;;5.63;3.35;;;;;;;7.61;100.00;92550.66;4995528;28;20050;-82
2023/12/13 06:54:34;;;;;;;12.85;5.93;;;;;;;7.61;100.00;92553.22;4994342;28;20047;-80
2023/12/13 06:57:03;;;;;;;5.78;3.50;;;;;;;7.64;100.00;92561.47;4991503;28;20054;-80
2023/12/13 06:59:30;;;;;;;5.70;3.25;;;;;;;7.28;100.00;92513.34;5001568;28;20050;-81
2023/12/13 07:01:58;;;;;;;4.22;2.95;;;;;;;7.46;100.00;92534.84;5008156;28;20054;-81
2023/12/13 07:04:25;;;;;;;4.78;3.28;;;;;;;7.45;100.00;92551.16;4997886;28;20137;-81
2023/12/13 07:06:52;;;;;;;5.10;3.15;;;;;;;7.39;100.00;92552.75;4990381;28;20521;-80
2023/12/13 07:09:19;;;;;;;5.88;2.90;;;;;;;7.42;100.00;92574.56;4991656;28;20779;-80
2023/12/13 07:11:47;;;;;;;5.05;3.17;;;;;;;7.41;100.00;92580.66;4998149;28;20648;-82
2023/12/13 07:14:16;;;;;;;4.43;2.67;;;;;;;7.42;100.00;92572.81;5005757;28;20497;-80
2023/12/13 07:16:43;;;;;;;7.22;2.85;;;;;;;7.45;100.00;92574.94;4995977;28;20061;-80
2023/12/13 07:19:10;;;;;;;4.55;2.75;;;;;;;7.33;100.00;92574.78;4993362;28;20056;-80
2023/12/13 07:21:37;;;;;;;4.53;2.72;;;;;;;7.56;100.00;92578.63;4990667;28;20118;-80
2023/12/13 07:24:05;;;;;;;7.07;3.38;;;;;;;7.62;100.00;92570.13;4989437;28;20137;-80
2023/12/13 07:26:32;;;;;;;6.07;3.33;;;;;;;7.65;100.00;92557.91;4990034;28;20133;-80
2023/12/13 07:28:59;;;;;;;6.93;3.40;;;;;;;7.68;100.00;92565.94;4999117;28;20050;-80
2023/12/13 07:31:27;;;;;;;7.20;3.13;;;;;;;7.71;100.00;92562.97;4989881;28;20042;-80
2023/12/13 07:33:54;;;;;;;6.88;3.40;;;;;;;7.82;100.00;92573.53;4989507;28;20056;-80
2023/12/13 07:36:22;;;;;;;4.22;2.67;;;;;;;7.79;100.00;92556.03;4993225;28;20050;-81
2023/12/13 07:38:49;;;;;;;7.45;3.38;;;;;;;7.93;100.00;92556.72;4989378;28;20046;-80
2023/12/13 07:41:16;;;;;;;5.13;2.90;;;;;;;7.93;100.00;92549.84;4989489;28;20053;-80
2023/12/13 07:43:43;;;;;;;5.60;3.13;;;;;;;7.87;100.00;92523.31;4989506;28;20050;-80
2023/12/13 07:46:10;;;;;;;6.32;3.40;;;;;;;8.06;100.00;92540.50;4990305;28;20134;-79
2023/12/13 07:48:41;;;;;;;9.18;4.70;;;;;;;8.00;100.00;92544.66;4989227;28;20046;-80
2023/12/13 07:51:08;;;;;;;7.75;3.70;;;;;;;8.21;100.00;92563.19;4989090;28;20137;-79
2023/12/13 07:53:35;;;;;;;4.97;2.90;;;;;;;8.34;99.81;92564.84;4990925;28;20057;-79
2023/12/13 07:56:06;;;;;;;6.10;2.97;;;;;;;8.43;99.82;92569.47;4994478;28;20069;-79
2023/12/13 07:58:33;;;;;;;6.85;3.30;;;;;;;8.37;98.76;92551.59;4992598;28;20090;-79
2023/12/13 08:00:59;;;;;;;7.43;2.97;;;;;;;8.57;98.63;92566.03;4988761;28;20140;-79
2023/12/13 08:03:26;;;;;;;7.15;4.47;;;;;;;8.68;98.05;92560.97;4988925;28;20057;-80
2023/12/13 08:05:55;;;;;;;6.22;3.30;;;;;;;8.60;97.66;92545.88;4989012;28;20056;-79
2023/12/13 08:08:22;;;;;;;6.45;2.85;;;;;;;8.87;97.41;92591.69;4989078;28;20136;-80
2023/12/13 08:10:49;;;;;;;6.40;2.92;;;;;;;8.91;96.78;92584.38;4990965;28;20044;-79
2023/12/13 08:13:16;;;;;;;5.30;3.30;;;;;;;9.01;96.69;92584.66;4988599;28;20060;-80
2023/12/13 08:15:45;;;;;;;4.75;2.50;;;;;;;9.01;96.91;92566.72;4989021;28;20101;-80
2023/12/13 08:18:12;;;;;;;7.43;3.10;;;;;;;9.00;95.96;92549.78;4989295;28;20102;-79
2023/12/13 08:20:39;;;;;;;4.72;2.88;;;;;;;9.05;95.93;92541.44;4988689;28;20065;-80
2023/12/13 08:23:08;;;;;;;6.72;3.38;;;;;;;8.89;96.50;92517.22;4990771;28;20054;-80
2023/12/13 08:25:34;;;;;;;6.25;3.15;;;;;;;8.93;95.94;92514.00;4988430;28;20062;-80
2023/12/13 08:28:02;;;;;;;5.25;2.92;;;;;;;9.02;95.60;92539.31;4989257;28;20064;-80
2023/12/13 08:30:31;;;;;;;4.28;2.78;;;;;;;9.07;96.15;92544.56;4988605;28;20859;-80
2023/12/13 08:32:58;;;;;;;6.57;2.95;;;;;;;9.07;95.82;92542.78;4989278;28;20046;-80
2023/12/13 08:35:26;;;;;;;7.13;2.78;;;;;;;9.16;95.92;92557.88;4988213;28;20427;-80
2023/12/13 08:37:53;;;;;;;5.43;2.92;;;;;;;9.09;95.59;92556.16;4988842;28;20551;-80
2023/12/13 08:40:22;;;;;;;4.63;2.88;;;;;;;9.18;95.58;92561.00;4988349;28;20046;-80
2023/12/13 08:42:48;;;;;;;7.68;2.75;;;;;;;9.27;95.56;92559.69;4988498;28;20053;-80
2023/12/13 08:45:15;;;;;;;6.57;3.10;;;;;;;9.34;94.65;92577.53;4988954;28;20168;-80
2023/12/13 08:47:42;;;;;;;7.53;3.20;;;;;;;9.32;94.42;92576.97;4990569;28;20039;-80
2023/12/13 08:50:09;;;;;;;8.82;4.15;;;;;;;9.37;94.75;92574.56;4988024;28;20042;-80
2023/12/13 08:52:36;;;;;;;9.32;4.82;;;;;;;9.41;95.06;92572.31;4988479;28;20084;-80
2023/12/13 08:55:04;;;;;;;13.10;6.10;;;;;;;9.46;94.23;92575.81;4988375;28;20046;-80
2023/12/13 08:57:32;;;;;;;10.50;4.40;;;;;;;9.47;93.79;92572.25;4988011;28;20051;-80
2023/12/13 08:59:59;;;;;;;9.18;4.38;;;;;;;9.42;94.17;92551.63;4988284;28;20073;-80
2023/12/13 09:02:26;;;;;;;7.13;3.33;;;;;;;9.51;93.60;92551.28;4988286;28;20149;-80
2023/12/13 09:04:53;;;;;;;8.27;3.92;;;;;;;9.53;94.11;92544.19;4992041;28;20133;-80
2023/12/13 09:07:20;;;;;;;7.63;3.65;;;;;;;9.63;93.75;92550.31;4988548;28;20057;-80
2023/12/13 09:09:47;;;;;;;15.02;8.07;;;;;;;9.70;93.62;92546.88;4990160;28;20048;-81
2023/12/13 09:12:14;;;;;;;12.30;4.88;;;;;;;9.68;93.67;92531.69;4988438;28;20046;-80
2023/12/13 09:14:43;;;;;;;11.68;5.88;;;;;;;9.84;93.57;92539.75;4988147;28;20046;-80
2023/12/13 09:17:10;;;;;;;17.42;8.63;;;;;;;9.91;93.62;92531.97;4989298;28;20042;-79
2023/12/13 09:19:37;;;;;;;8.90;3.08;;;;;;;9.88;93.22;92522.94;5003352;28;20137;-79
2023/12/13 09:22:04;;;;;;;9.75;3.35;;;;;;;9.90;93.11;92513.22;5004658;28;20412;-79
2023/12/13 09:24:31;;;;;;;6.28;3.35;;;;;;;9.93;92.31;92512.78;4989616;28;20058;-80
2023/12/13 09:26:59;;;;;;;11.20;4.63;;;;;;;9.84;92.33;92502.06;4987950;28;20055;-80
2023/12/13 09:29:26;;;;;;;8.85;4.10;;;;;;;9.84;92.16;92489.25;4988309;28;20046;-80
2023/12/13 09:31:54;;;;;;;8.98;3.80;;;;;;;9.76;93.09;92474.97;4994770;28;20052;-81
2023/12/13 09:34:21;;;;;;;8.55;4.10;;;;;;;9.78;93.00;92508.09;4988259;28;20057;-81
2023/12/13 09:36:48;;;;;;;7.63;3.78;;;;;;;9.81;92.74;92505.06;4988693;28;20520;-81
2023/12/13 09:39:16;;;;;;;8.70;4.45;;;;;;;9.80;92.75;92521.47;4987709;28;20522;-80
2023/12/13 09:41:55;;;;;;;17.27;9.02;;;;;;;9.86;92.61;92514.69;5003324;28;20066;-81
2023/12/13 09:44:24;;;;;;;6.57;2.95;;;;;;;9.78;92.45;92484.22;4998238;28;20051;-80
2023/12/13 09:46:56;;;;;;;8.05;4.00;;;;;;;9.97;92.52;92497.72;4987812;28;20053;-80
2023/12/13 09:49:24;;;;;;;7.97;3.72;;;;;;;9.93;92.71;92476.06;4997134;28;20056;-81
2023/12/13 09:51:52;;;;;;;9.75;4.68;;;;;;;10.10;92.40;92476.97;5001113;28;20053;-81
2023/12/13 09:54:20;;;;;;;12.38;4.93;;;;;;;10.11;91.69;92465.72;4987716;28;20101;-81
2023/12/13 09:56:47;;;;;;;24.17;10.18;;;;;;;10.26;91.65;92467.00;4988086;28;20419;-80
2023/12/13 09:59:14;;;;;;;13.40;4.50;;;;;;;10.40;91.41;92455.50;4996078;28;20052;-80
2023/12/13 10:01:42;;;;;;;10.82;4.40;;;;;;;10.67;90.99;92474.78;4988801;28;20046;-81
2023/12/13 10:04:09;;;;;;;8.70;4.43;;;;;;;10.81;88.76;92475.28;4988964;28;20053;-81
2023/12/13 10:06:36;;;;;;;32.58;13.73;;;;;;;10.80;88.43;92466.03;4989548;28;20057;-80
2023/12/13 10:09:03;;;;;;;9.18;3.97;;;;;;;10.59;87.63;92426.34;4997166;28;20050;-80
2023/12/13 10:11:30;;;;;;;12.98;3.67;;;;;;;10.62;87.03;92436.94;4992315;28;20050;-81
2023/12/13 10:13:58;;;;;;;9.02;3.60;;;;;;;10.73;87.55;92458.44;4998443;28;20053;-81
2023/12/13 10:16:27;;;;;;;12.40;4.90;;;;;;;10.68;87.69;92443.72;4994358;28;20571;-80
2023/12/13 10:18:54;;;;;;;16.00;4.55;;;;;;;10.47;88.00;92441.78;4993193;28;20045;-80
2023/12/13 10:21:22;;;;;;;33.20;8.38;;;;;;;10.67;88.15;92451.66;4998473;28;20088;-81
2023/12/13 10:23:49;;;;;;;12.65;5.22;;;;;;;10.74;88.35;92429.19;4999501;28;20199;-81
2023/12/13 10:26:16;;;;;;;24.42;6.70;;;;;;;10.87;87.45;92428.13;4998221;28;20077;-81
2023/12/13 10:28:45;;;;;;;16.00;5.13;;;;;;;10.80;87.40;92415.41;4999740;28;20484;-79
2023/12/13 10:31:21;;;;;;;10.60;4.70;;;;;;;10.66;87.13;92402.06;5003427;28;20612;-81
2023/12/13 10:33:48;;;;;;;18.45;6.20;;;;;;;10.81;87.04;92411.84;5012117;28;20124;-81
2023/12/13 10:36:15;;;;;;;18.42;6.75;;;;;;;10.79;86.95;92398.44;5013329;28;20046;-81
2023/12/13 10:38:45;;;;;;;17.80;6.05;;;;;;;10.72;87.24;92402.94;5013753;28;20056;-80
2023/12/13 10:41:15;;;;;;;12.10;3.70;;;;;;;10.41;87.16;92363.84;5005993;28;20048;-81
2023/12/13 10:43:43;;;;;;;21.85;8.95;;;;;;;10.72;87.96;92405.53;5011743;28;20072;-81
2023/12/13 10:46:16;;;;;;;10.88;5.00;;;;;;;10.71;87.26;92400.59;5011027;28;20055;-81
2023/12/13 10:48:44;;;;;;;27.33;10.77;;;;;;;10.61;87.97;92383.22;5000209;28;20132;-79
2023/12/13 10:51:11;;;;;;;18.10;7.05;;;;;;;10.70;87.88;92389.56;5015469;28;20073;-80
2023/12/13 10:53:39;;;;;;;15.02;5.70;;;;;;;10.67;87.75;92388.25;5012150;28;20046;-79
2023/12/13 10:56:09;;;;;;;11.68;4.80;;;;;;;10.72;88.32;92405.53;5015582;28;20056;-80
2023/12/13 10:58:37;;;;;;;16.30;6.50;;;;;;;10.63;87.86;92382.00;5012227;28;20103;-81
2023/12/13 11:01:05;;;;;;;14.27;6.97;;;;;;;10.73;88.56;92385.75;4998398;28;20133;-81
2023/12/13 11:03:41;;;;;;;9.20;4.40;;;;;;;10.77;87.72;92385.06;4992357;28;20068;-81
2023/12/13 11:06:12;;;;;;;13.32;6.35;;;;;;;10.86;87.06;92380.31;4997825;28;20054;-80
2023/12/13 11:08:40;;;;;;;12.15;4.10;;;;;;;10.69;86.48;92346.88;4999268;28;20054;-81
2023/12/13 11:11:11;;;;;;;10.88;4.13;;;;;;;10.92;86.82;92376.06;4995109;28;20161;-80
2023/12/13 11:13:47;;;;;;;7.75;3.60;;;;;;;10.93;86.57;92365.53;4995316;28;20097;-81
2023/12/13 11:16:20;;;;;;;12.50;5.63;;;;;;;10.91;86.52;92364.19;4990766;28;20054;-81
2023/12/13 11:18:48;;;;;;;5.32;2.45;;;;;;;11.04;86.37;92370.84;4995174;28;20604;-81
2023/12/13 11:21:24;;;;;;;9.00;4.72;;;;;;;11.08;86.61;92367.56;4991713;28;20061;-81
2023/12/13 11:23:51;;;;;;;;;;;;;;;11.08;85.91;92357.28;4996570;28;20042;-81
2023/12/13 11:26:22;;;;;;;5.88;2.67;;;;;;;10.96;85.69;92356.59;5000690;28;19925;-80
2023/12/13 11:28:50;;;;;;;7.47;2.45;;;;;;;10.95;86.92;92360.16;4990480;28;20484;-81
2023/12/13 11:31:22;;;;;;;4.90;2.80;;;;;;;11.12;86.84;92370.47;4989646;28;20050;-81
2023/12/13 11:33:49;;;;;;;5.70;2.33;;;;;;;11.17;86.12;92372.31;4989952;28;20116;-81
2023/12/13 11:36:19;;;;;;;4.10;2.28;;;;;;;11.16;86.29;92356.13;4991245;28;20046;-81